Bw Arctic — 3EDI6 — position and weather

sailwx.info

Track history (hours):
 
Tides and Currents Weather Stations Pressure Air Temp Water Temp Dewpoint Dewpoint Depression Visibility Wind Speed Wind Dir Waves Ship Positions

Bw Arctic

Last reported at 2014-Aug-16 11:33 UTC. Time now 2014-Aug-23 19:50 UTC.
Position N 54°16' W 005°13'.

Length 292 m; beam 48 m; draft 17.2 m.

Type: Cargo ship. MMSI: 371579000.

Date/timePositionNaut miles runAvg speedWind from/ knotsBaromVisibWave heightAir tempDewpointWater temp
2014-Aug-16 11:33N 54°16' W 005°13'1110.9
2014-Aug-16 10:33N 54°26' W 005°13'1111.1
2014-Aug-16 09:33N 54°38' W 005°13'1313.4
2014-Aug-16 08:33N 54°49' W 005°25'36 8.9
2014-Aug-16 04:33N 55°18' W 006°02'9 8.7
2014-Aug-16 03:33N 55°23' W 006°15'1010.3
2014-Aug-16 02:33N 55°25' W 006°33'1211.9
2014-Aug-16 01:33N 55°35' W 006°44'1312.8
2014-Aug-16 00:33N 55°46' W 006°57'  
2014-Aug-13 19:00N 63°42' E 000°42'   090 / 151000.810.8 2.015.214.913.0
Track history (hours):
 
Tides and Currents Weather Stations Pressure Air Temp Water Temp Dewpoint Dewpoint Depression Visibility Wind Speed Wind Dir Waves Ship Positions

Bw Arctic

Last reported at 2014-Aug-16 11:33 UTC. Time now 2014-Aug-23 19:50 UTC.
Position N 54°16' W 005°13'.

Length 292 m; beam 48 m; draft 17.2 m.

Type: Cargo ship. MMSI: 371579000.

Date/timePositionNaut miles runAvg speedWind from/ knotsBaromVisibWave heightAir tempDewpointWater temp
2014-Aug-16 11:33N 54°16' W 005°13'1110.9
2014-Aug-16 10:33N 54°26' W 005°13'1111.1
2014-Aug-16 09:33N 54°38' W 005°13'1313.4
2014-Aug-16 08:33N 54°49' W 005°25'36 8.9
2014-Aug-16 04:33N 55°18' W 006°02'9 8.7
2014-Aug-16 03:33N 55°23' W 006°15'1010.3
2014-Aug-16 02:33N 55°25' W 006°33'1211.9
2014-Aug-16 01:33N 55°35' W 006°44'1312.8
2014-Aug-16 00:33N 55°46' W 006°57'  
2014-Aug-13 19:00N 63°42' E 000°42'   090 / 151000.810.8 2.015.214.913.0

Dump ship's entire track history